sensor_id;sensor_type;location;lat;lon;timestamp;pressure;altitude;pressure_sealevel;temperature;humidity
77118;BME280;66072;50.238;19.228;2024-03-22T00:02:09;98736.67;;;10.44;73.43
77118;BME280;66072;50.238;19.228;2024-03-22T00:04:37;98736.98;;;10.44;73.67
77118;BME280;66072;50.238;19.228;2024-03-22T00:07:05;98735.14;;;10.43;73.94
77118;BME280;66072;50.238;19.228;2024-03-22T00:09:32;98731.19;;;10.44;73.81
77118;BME280;66072;50.238;19.228;2024-03-22T00:11:59;98735.84;;;10.43;74.25
77118;BME280;66072;50.238;19.228;2024-03-22T00:14:27;98735.33;;;10.43;74.72
77118;BME280;66072;50.238;19.228;2024-03-22T00:16:54;98733.84;;;10.42;74.67
77118;BME280;66072;50.238;19.228;2024-03-22T00:19:21;98735.08;;;10.40;74.81
77118;BME280;66072;50.238;19.228;2024-03-22T00:21:49;98734.64;;;10.39;75.14
77118;BME280;66072;50.238;19.228;2024-03-22T00:24:16;98733.28;;;10.39;75.40
77118;BME280;66072;50.238;19.228;2024-03-22T00:26:44;98728.73;;;10.37;75.66
77118;BME280;66072;50.238;19.228;2024-03-22T00:29:11;98734.34;;;10.38;76.28
77118;BME280;66072;50.238;19.228;2024-03-22T00:31:38;98729.18;;;10.39;75.81
77118;BME280;66072;50.238;19.228;2024-03-22T00:34:06;98730.57;;;10.38;76.03
77118;BME280;66072;50.238;19.228;2024-03-22T00:36:33;98728.73;;;10.37;76.04
77118;BME280;66072;50.238;19.228;2024-03-22T00:39:00;98729.45;;;10.36;76.76
77118;BME280;66072;50.238;19.228;2024-03-22T00:41:28;98729.41;;;10.37;76.60
77118;BME280;66072;50.238;19.228;2024-03-22T00:43:55;98727.17;;;10.38;76.39
77118;BME280;66072;50.238;19.228;2024-03-22T00:46:23;98726.85;;;10.37;76.39
77118;BME280;66072;50.238;19.228;2024-03-22T00:48:50;98724.67;;;10.36;76.38
77118;BME280;66072;50.238;19.228;2024-03-22T00:51:18;98725.23;;;10.35;76.78
77118;BME280;66072;50.238;19.228;2024-03-22T00:53:45;98726.66;;;10.34;76.67
77118;BME280;66072;50.238;19.228;2024-03-22T00:56:12;98727.23;;;10.32;76.98
77118;BME280;66072;50.238;19.228;2024-03-22T00:58:40;98727.98;;;10.30;76.52
77118;BME280;66072;50.238;19.228;2024-03-22T01:01:08;98727.02;;;10.29;76.57
77118;BME280;66072;50.238;19.228;2024-03-22T01:03:35;98726.90;;;10.28;76.83
77118;BME280;66072;50.238;19.228;2024-03-22T01:06:02;98725.04;;;10.27;77.39
77118;BME280;66072;50.238;19.228;2024-03-22T01:08:30;98720.11;;;10.27;77.47
77118;BME280;66072;50.238;19.228;2024-03-22T01:10:57;98720.64;;;10.27;77.84
77118;BME280;66072;50.238;19.228;2024-03-22T01:13:24;98718.23;;;10.27;77.98
77118;BME280;66072;50.238;19.228;2024-03-22T01:15:52;98720.77;;;10.27;77.84
77118;BME280;66072;50.238;19.228;2024-03-22T01:18:19;98718.61;;;10.26;77.75
77118;BME280;66072;50.238;19.228;2024-03-22T01:20:47;98719.70;;;10.23;77.58
77118;BME280;66072;50.238;19.228;2024-03-22T01:23:14;98716.67;;;10.22;77.84
77118;BME280;66072;50.238;19.228;2024-03-22T01:25:42;98713.33;;;10.20;78.49
77118;BME280;66072;50.238;19.228;2024-03-22T01:28:09;98712.84;;;10.19;78.26
77118;BME280;66072;50.238;19.228;2024-03-22T01:30:37;98713.95;;;10.17;78.49
77118;BME280;66072;50.238;19.228;2024-03-22T01:33:04;98713.35;;;10.15;78.51
77118;BME280;66072;50.238;19.228;2024-03-22T01:35:31;98712.59;;;10.13;78.40
77118;BME280;66072;50.238;19.228;2024-03-22T01:37:59;98716.97;;;10.10;78.62
77118;BME280;66072;50.238;19.228;2024-03-22T01:40:26;98716.80;;;10.06;79.18
77118;BME280;66072;50.238;19.228;2024-03-22T01:42:57;98710.79;;;10.03;79.61
77118;BME280;66072;50.238;19.228;2024-03-22T01:45:25;98716.30;;;10.02;79.96
77118;BME280;66072;50.238;19.228;2024-03-22T01:47:53;98717.05;;;10.00;80.48
77118;BME280;66072;50.238;19.228;2024-03-22T01:50:21;98720.51;;;9.99;80.79
77118;BME280;66072;50.238;19.228;2024-03-22T01:52:49;98716.77;;;9.98;81.15
77118;BME280;66072;50.238;19.228;2024-03-22T01:55:16;98720.34;;;9.99;81.41
77118;BME280;66072;50.238;19.228;2024-03-22T01:57:44;98719.33;;;9.99;82.15
77118;BME280;66072;50.238;19.228;2024-03-22T02:00:12;98722.70;;;9.99;82.15
77118;BME280;66072;50.238;19.228;2024-03-22T02:02:40;98726.59;;;10.01;82.32
77118;BME280;66072;50.238;19.228;2024-03-22T02:05:17;98725.86;;;10.02;82.82
77118;BME280;66072;50.238;19.228;2024-03-22T02:07:46;98725.52;;;10.02;82.97
77118;BME280;66072;50.238;19.228;2024-03-22T02:10:14;98727.27;;;10.01;83.82
77118;BME280;66072;50.238;19.228;2024-03-22T02:12:42;98728.52;;;10.00;83.43
77118;BME280;66072;50.238;19.228;2024-03-22T02:15:09;98727.13;;;9.96;84.01
77118;BME280;66072;50.238;19.228;2024-03-22T02:17:37;98731.39;;;9.91;83.48
77118;BME280;66072;50.238;19.228;2024-03-22T02:20:05;98731.27;;;9.86;84.30
77118;BME280;66072;50.238;19.228;2024-03-22T02:22:32;98728.22;;;9.81;84.84
77118;BME280;66072;50.238;19.228;2024-03-22T02:25:00;98731.10;;;9.78;85.12
77118;BME280;66072;50.238;19.228;2024-03-22T02:27:27;98739.77;;;9.74;85.85
77118;BME280;66072;50.238;19.228;2024-03-22T02:29:55;98736.10;;;9.72;85.84
77118;BME280;66072;50.238;19.228;2024-03-22T02:32:22;98725.12;;;9.68;86.31
77118;BME280;66072;50.238;19.228;2024-03-22T02:34:49;98722.97;;;9.66;86.46
77118;BME280;66072;50.238;19.228;2024-03-22T02:37:28;98722.90;;;9.64;85.72
77118;BME280;66072;50.238;19.228;2024-03-22T02:39:55;98720.48;;;9.61;85.92
77118;BME280;66072;50.238;19.228;2024-03-22T02:42:22;98718.92;;;9.56;86.37
77118;BME280;66072;50.238;19.228;2024-03-22T02:44:50;98721.10;;;9.53;86.60
77118;BME280;66072;50.238;19.228;2024-03-22T02:47:17;98718.50;;;9.50;86.65
77118;BME280;66072;50.238;19.228;2024-03-22T02:49:44;98725.02;;;9.44;86.53
77118;BME280;66072;50.238;19.228;2024-03-22T02:52:12;98726.92;;;9.39;86.85
77118;BME280;66072;50.238;19.228;2024-03-22T02:54:39;98726.51;;;9.36;87.05
77118;BME280;66072;50.238;19.228;2024-03-22T02:57:07;98721.36;;;9.33;87.08
77118;BME280;66072;50.238;19.228;2024-03-22T02:59:34;98721.83;;;9.29;87.26
77118;BME280;66072;50.238;19.228;2024-03-22T03:02:01;98719.02;;;9.27;87.19
77118;BME280;66072;50.238;19.228;2024-03-22T03:04:29;98714.05;;;9.23;87.37
77118;BME280;66072;50.238;19.228;2024-03-22T03:06:56;98711.27;;;9.20;87.52
77118;BME280;66072;50.238;19.228;2024-03-22T03:09:24;98710.73;;;9.16;87.67
77118;BME280;66072;50.238;19.228;2024-03-22T03:11:51;98714.79;;;9.11;88.24
77118;BME280;66072;50.238;19.228;2024-03-22T03:14:18;98714.63;;;9.07;88.43
77118;BME280;66072;50.238;19.228;2024-03-22T03:16:46;98712.20;;;9.03;87.97
77118;BME280;66072;50.238;19.228;2024-03-22T03:19:13;98705.83;;;9.00;87.91
77118;BME280;66072;50.238;19.228;2024-03-22T03:21:41;98706.33;;;8.96;88.52
77118;BME280;66072;50.238;19.228;2024-03-22T03:24:08;98709.02;;;8.92;89.57
77118;BME280;66072;50.238;19.228;2024-03-22T03:26:36;98712.02;;;8.89;89.98
77118;BME280;66072;50.238;19.228;2024-03-22T03:29:03;98709.84;;;8.88;90.82
77118;BME280;66072;50.238;19.228;2024-03-22T03:31:30;98711.36;;;8.88;92.05
77118;BME280;66072;50.238;19.228;2024-03-22T03:33:58;98708.42;;;8.89;92.19
77118;BME280;66072;50.238;19.228;2024-03-22T03:36:25;98708.42;;;8.90;91.87
77118;BME280;66072;50.238;19.228;2024-03-22T03:38:53;98708.94;;;8.90;92.44
77118;BME280;66072;50.238;19.228;2024-03-22T03:41:20;98705.14;;;8.91;92.22
77118;BME280;66072;50.238;19.228;2024-03-22T03:43:47;98702.36;;;8.93;93.44
77118;BME280;66072;50.238;19.228;2024-03-22T03:46:15;98703.13;;;8.95;93.61
77118;BME280;66072;50.238;19.228;2024-03-22T03:48:42;98698.98;;;8.97;93.80
77118;BME280;66072;50.238;19.228;2024-03-22T03:51:10;98700.51;;;8.97;93.11
77118;BME280;66072;50.238;19.228;2024-03-22T03:53:37;98696.10;;;8.96;92.58
77118;BME280;66072;50.238;19.228;2024-03-22T03:56:04;98694.80;;;8.94;93.20
77118;BME280;66072;50.238;19.228;2024-03-22T03:58:32;98693.36;;;8.91;93.56
77118;BME280;66072;50.238;19.228;2024-03-22T04:01:05;98691.70;;;8.90;93.91
77118;BME280;66072;50.238;19.228;2024-03-22T04:03:32;98690.92;;;8.88;93.53
77118;BME280;66072;50.238;19.228;2024-03-22T04:06:00;98693.73;;;8.86;93.34
77118;BME280;66072;50.238;19.228;2024-03-22T04:08:29;98694.47;;;8.84;93.02
77118;BME280;66072;50.238;19.228;2024-03-22T04:10:57;98689.77;;;8.81;93.14
77118;BME280;66072;50.238;19.228;2024-03-22T04:13:25;98685.40;;;8.80;92.96
77118;BME280;66072;50.238;19.228;2024-03-22T04:15:53;98690.94;;;8.78;93.16
77118;BME280;66072;50.238;19.228;2024-03-22T04:18:20;98692.70;;;8.76;93.83
77118;BME280;66072;50.238;19.228;2024-03-22T04:20:55;98690.17;;;8.76;95.08
77118;BME280;66072;50.238;19.228;2024-03-22T04:23:23;98686.27;;;8.75;95.43
77118;BME280;66072;50.238;19.228;2024-03-22T04:25:55;98684.08;;;8.74;94.83
77118;BME280;66072;50.238;19.228;2024-03-22T04:28:23;98684.67;;;8.72;94.79
77118;BME280;66072;50.238;19.228;2024-03-22T04:31:01;98687.80;;;8.70;95.47
77118;BME280;66072;50.238;19.228;2024-03-22T04:33:30;98687.02;;;8.68;95.20
77118;BME280;66072;50.238;19.228;2024-03-22T04:35:59;98686.92;;;8.67;94.75
77118;BME280;66072;50.238;19.228;2024-03-22T04:38:27;98686.48;;;8.64;94.95
77118;BME280;66072;50.238;19.228;2024-03-22T04:40:55;98693.89;;;8.62;94.72
77118;BME280;66072;50.238;19.228;2024-03-22T04:43:24;98699.94;;;8.60;95.63
77118;BME280;66072;50.238;19.228;2024-03-22T04:45:52;98699.63;;;8.58;95.50
77118;BME280;66072;50.238;19.228;2024-03-22T04:48:21;98702.02;;;8.58;96.19
77118;BME280;66072;50.238;19.228;2024-03-22T04:50:50;98699.96;;;8.58;96.25
77118;BME280;66072;50.238;19.228;2024-03-22T04:53:18;98698.04;;;8.60;96.08
77118;BME280;66072;50.238;19.228;2024-03-22T04:55:46;98703.96;;;8.61;96.14
77118;BME280;66072;50.238;19.228;2024-03-22T04:58:15;98698.59;;;8.64;96.13
77118;BME280;66072;50.238;19.228;2024-03-22T05:00:43;98698.54;;;8.66;95.71
77118;BME280;66072;50.238;19.228;2024-03-22T05:03:11;98707.36;;;8.68;95.50
77118;BME280;66072;50.238;19.228;2024-03-22T05:05:39;98714.67;;;8.68;95.32
77118;BME280;66072;50.238;19.228;2024-03-22T05:08:07;98714.45;;;8.69;94.91
77118;BME280;66072;50.238;19.228;2024-03-22T05:10:35;98708.19;;;8.73;94.81
77118;BME280;66072;50.238;19.228;2024-03-22T05:13:03;98707.63;;;8.74;95.03
77118;BME280;66072;50.238;19.228;2024-03-22T05:15:31;98711.17;;;8.75;95.23
77118;BME280;66072;50.238;19.228;2024-03-22T05:17:59;98711.50;;;8.75;94.59
77118;BME280;66072;50.238;19.228;2024-03-22T05:20:26;98713.88;;;8.75;94.82
77118;BME280;66072;50.238;19.228;2024-03-22T05:22:54;98714.36;;;8.77;94.77
77118;BME280;66072;50.238;19.228;2024-03-22T05:25:22;98713.92;;;8.79;94.34
77118;BME280;66072;50.238;19.228;2024-03-22T05:27:49;98714.83;;;8.82;94.52
77118;BME280;66072;50.238;19.228;2024-03-22T05:30:17;98719.16;;;8.85;94.48
77118;BME280;66072;50.238;19.228;2024-03-22T05:32:44;98715.95;;;8.88;94.51
77118;BME280;66072;50.238;19.228;2024-03-22T05:35:12;98724.58;;;8.92;94.52
77118;BME280;66072;50.238;19.228;2024-03-22T05:37:39;98724.47;;;8.94;94.72
77118;BME280;66072;50.238;19.228;2024-03-22T05:40:07;98725.22;;;8.97;94.63
77118;BME280;66072;50.238;19.228;2024-03-22T05:42:35;98728.34;;;9.00;94.73
77118;BME280;66072;50.238;19.228;2024-03-22T05:45:03;98728.08;;;9.03;94.54
77118;BME280;66072;50.238;19.228;2024-03-22T05:47:30;98722.10;;;9.08;94.41
77118;BME280;66072;50.238;19.228;2024-03-22T05:50:05;98722.44;;;9.12;94.09
77118;BME280;66072;50.238;19.228;2024-03-22T05:52:33;98722.19;;;9.15;93.62
77118;BME280;66072;50.238;19.228;2024-03-22T05:55:00;98719.70;;;9.18;93.07
77118;BME280;66072;50.238;19.228;2024-03-22T05:57:28;98716.92;;;9.19;92.82
77118;BME280;66072;50.238;19.228;2024-03-22T05:59:55;98712.91;;;9.22;92.49
77118;BME280;66072;50.238;19.228;2024-03-22T06:02:23;98715.45;;;9.27;92.22
77118;BME280;66072;50.238;19.228;2024-03-22T06:04:50;98713.89;;;9.31;92.01
77118;BME280;66072;50.238;19.228;2024-03-22T06:07:17;98709.17;;;9.35;91.56
77118;BME280;66072;50.238;19.228;2024-03-22T06:09:45;98710.95;;;9.37;91.15
77118;BME280;66072;50.238;19.228;2024-03-22T06:12:13;98708.66;;;9.39;90.38
77118;BME280;66072;50.238;19.228;2024-03-22T06:14:41;98712.74;;;9.39;89.36
77118;BME280;66072;50.238;19.228;2024-03-22T06:17:09;98717.55;;;9.38;87.73
77118;BME280;66072;50.238;19.228;2024-03-22T06:19:37;98717.97;;;9.36;86.77
77118;BME280;66072;50.238;19.228;2024-03-22T06:22:04;98718.70;;;9.35;85.76
77118;BME280;66072;50.238;19.228;2024-03-22T06:24:35;98719.88;;;9.31;84.21
77118;BME280;66072;50.238;19.228;2024-03-22T06:27:02;98721.42;;;9.27;83.46
77118;BME280;66072;50.238;19.228;2024-03-22T06:29:30;98721.11;;;9.21;83.10
77118;BME280;66072;50.238;19.228;2024-03-22T06:31:57;98716.64;;;9.17;82.29
77118;BME280;66072;50.238;19.228;2024-03-22T06:34:25;98717.09;;;9.14;82.47
77118;BME280;66072;50.238;19.228;2024-03-22T06:36:52;98719.64;;;9.10;82.07
77118;BME280;66072;50.238;19.228;2024-03-22T06:39:20;98721.77;;;9.08;81.75
77118;BME280;66072;50.238;19.228;2024-03-22T06:41:47;98720.17;;;9.05;81.49
77118;BME280;66072;50.238;19.228;2024-03-22T06:44:14;98726.55;;;9.03;81.39
77118;BME280;66072;50.238;19.228;2024-03-22T06:46:42;98721.48;;;9.01;80.79
77118;BME280;66072;50.238;19.228;2024-03-22T06:49:09;98721.33;;;9.01;81.15
77118;BME280;66072;50.238;19.228;2024-03-22T06:51:37;98721.13;;;9.02;80.95
77118;BME280;66072;50.238;19.228;2024-03-22T06:54:04;98719.98;;;9.05;80.69
77118;BME280;66072;50.238;19.228;2024-03-22T06:56:31;98717.10;;;9.09;80.49
77118;BME280;66072;50.238;19.228;2024-03-22T06:58:59;98718.52;;;9.12;80.10
77118;BME280;66072;50.238;19.228;2024-03-22T07:01:26;98723.85;;;9.16;80.02
77118;BME280;66072;50.238;19.228;2024-03-22T07:03:54;98719.80;;;9.20;79.72
77118;BME280;66072;50.238;19.228;2024-03-22T07:06:21;98725.20;;;9.22;79.43
77118;BME280;66072;50.238;19.228;2024-03-22T07:08:49;98722.11;;;9.22;79.10
77118;BME280;66072;50.238;19.228;2024-03-22T07:11:16;98721.55;;;9.24;79.22
77118;BME280;66072;50.238;19.228;2024-03-22T07:13:44;98719.02;;;9.27;79.39
77118;BME280;66072;50.238;19.228;2024-03-22T07:16:11;98718.77;;;9.29;79.14
77118;BME280;66072;50.238;19.228;2024-03-22T07:18:39;98720.16;;;9.33;79.23
77118;BME280;66072;50.238;19.228;2024-03-22T07:21:06;98720.28;;;9.39;79.17
77118;BME280;66072;50.238;19.228;2024-03-22T07:23:33;98718.48;;;9.46;78.60
77118;BME280;66072;50.238;19.228;2024-03-22T07:26:01;98717.94;;;9.51;78.86
77118;BME280;66072;50.238;19.228;2024-03-22T07:28:30;98716.48;;;9.58;78.74
77118;BME280;66072;50.238;19.228;2024-03-22T07:30:57;98712.86;;;9.62;78.24
77118;BME280;66072;50.238;19.228;2024-03-22T07:33:25;98706.95;;;9.66;77.74
77118;BME280;66072;50.238;19.228;2024-03-22T07:35:52;98707.24;;;9.67;77.78
77118;BME280;66072;50.238;19.228;2024-03-22T07:38:20;98707.80;;;9.66;77.65
77118;BME280;66072;50.238;19.228;2024-03-22T07:40:47;98712.55;;;9.62;77.79
77118;BME280;66072;50.238;19.228;2024-03-22T07:43:15;98713.60;;;9.61;77.83
77118;BME280;66072;50.238;19.228;2024-03-22T07:45:42;98710.60;;;9.60;78.11
77118;BME280;66072;50.238;19.228;2024-03-22T07:48:10;98710.62;;;9.63;78.35
77118;BME280;66072;50.238;19.228;2024-03-22T07:50:37;98709.53;;;9.70;78.28
77118;BME280;66072;50.238;19.228;2024-03-22T07:53:05;98709.66;;;9.76;78.03
77118;BME280;66072;50.238;19.228;2024-03-22T07:55:32;98707.31;;;9.79;77.52
77118;BME280;66072;50.238;19.228;2024-03-22T07:57:59;98705.77;;;9.79;77.52
77118;BME280;66072;50.238;19.228;2024-03-22T08:00:27;98703.94;;;9.78;77.59
77118;BME280;66072;50.238;19.228;2024-03-22T08:02:55;98698.58;;;9.79;77.66
77118;BME280;66072;50.238;19.228;2024-03-22T08:05:22;98694.02;;;9.82;77.79
77118;BME280;66072;50.238;19.228;2024-03-22T08:07:49;98693.14;;;9.87;78.22
77118;BME280;66072;50.238;19.228;2024-03-22T08:10:17;98694.33;;;9.96;78.22
77118;BME280;66072;50.238;19.228;2024-03-22T08:12:44;98695.94;;;10.02;77.99
77118;BME280;66072;50.238;19.228;2024-03-22T08:15:11;98690.66;;;10.06;77.74
77118;BME280;66072;50.238;19.228;2024-03-22T08:17:39;98690.77;;;10.08;77.88
77118;BME280;66072;50.238;19.228;2024-03-22T08:20:07;98695.72;;;10.08;77.60
77118;BME280;66072;50.238;19.228;2024-03-22T08:22:35;98698.58;;;10.05;78.10
77118;BME280;66072;50.238;19.228;2024-03-22T08:25:02;98695.30;;;10.05;78.23
77118;BME280;66072;50.238;19.228;2024-03-22T08:27:30;98701.57;;;10.10;78.13
77118;BME280;66072;50.238;19.228;2024-03-22T08:30:10;98697.23;;;10.12;78.05
77118;BME280;66072;50.238;19.228;2024-03-22T08:32:37;98703.34;;;10.22;77.81
77118;BME280;66072;50.238;19.228;2024-03-22T08:35:05;98705.44;;;10.34;77.42
77118;BME280;66072;50.238;19.228;2024-03-22T08:37:33;98709.16;;;10.43;77.19
77118;BME280;66072;50.238;19.228;2024-03-22T08:40:00;98706.74;;;10.47;77.05
77118;BME280;66072;50.238;19.228;2024-03-22T08:42:28;98705.44;;;10.42;76.99
77118;BME280;66072;50.238;19.228;2024-03-22T08:44:55;98705.91;;;10.47;77.13
77118;BME280;66072;50.238;19.228;2024-03-22T08:47:23;98697.11;;;10.49;76.59
77118;BME280;66072;50.238;19.228;2024-03-22T08:49:50;98701.19;;;10.49;76.74
77118;BME280;66072;50.238;19.228;2024-03-22T08:52:18;98701.26;;;10.52;76.94
77118;BME280;66072;50.238;19.228;2024-03-22T08:54:46;98698.55;;;10.55;76.86
77118;BME280;66072;50.238;19.228;2024-03-22T08:57:14;98705.63;;;10.54;76.67
77118;BME280;66072;50.238;19.228;2024-03-22T08:59:41;98701.25;;;10.56;76.61
77118;BME280;66072;50.238;19.228;2024-03-22T09:02:09;98701.08;;;10.64;76.61
77118;BME280;66072;50.238;19.228;2024-03-22T09:04:37;98701.68;;;10.74;76.35
77118;BME280;66072;50.238;19.228;2024-03-22T09:07:04;98701.11;;;10.83;75.89
77118;BME280;66072;50.238;19.228;2024-03-22T09:09:32;98701.23;;;10.84;75.84
77118;BME280;66072;50.238;19.228;2024-03-22T09:11:59;98701.53;;;10.82;75.78
77118;BME280;66072;50.238;19.228;2024-03-22T09:14:27;98704.59;;;10.74;75.59
77118;BME280;66072;50.238;19.228;2024-03-22T09:16:54;98704.11;;;10.65;75.70
77118;BME280;66072;50.238;19.228;2024-03-22T09:19:22;98701.91;;;10.60;76.01
77118;BME280;66072;50.238;19.228;2024-03-22T09:21:49;98702.13;;;10.64;76.08
77118;BME280;66072;50.238;19.228;2024-03-22T09:24:17;98697.04;;;10.66;75.77
77118;BME280;66072;50.238;19.228;2024-03-22T09:26:44;98695.30;;;10.71;76.08
77118;BME280;66072;50.238;19.228;2024-03-22T09:29:13;98697.49;;;10.88;75.72
77118;BME280;66072;50.238;19.228;2024-03-22T09:31:41;98696.41;;;11.08;74.94
77118;BME280;66072;50.238;19.228;2024-03-22T09:34:11;98695.65;;;11.28;74.46
77118;BME280;66072;50.238;19.228;2024-03-22T09:36:39;98693.89;;;11.45;73.90
77118;BME280;66072;50.238;19.228;2024-03-22T09:39:06;98691.84;;;11.51;73.25
77118;BME280;66072;50.238;19.228;2024-03-22T09:41:42;98689.86;;;11.54;72.58
77118;BME280;66072;50.238;19.228;2024-03-22T09:44:18;98691.20;;;11.47;72.07
77118;BME280;66072;50.238;19.228;2024-03-22T09:46:50;98689.59;;;11.34;72.27
77118;BME280;66072;50.238;19.228;2024-03-22T09:49:18;98688.04;;;11.23;72.38
77118;BME280;66072;50.238;19.228;2024-03-22T09:51:46;98683.64;;;11.18;73.03
77118;BME280;66072;50.238;19.228;2024-03-22T09:54:15;98681.80;;;11.21;72.82
77118;BME280;66072;50.238;19.228;2024-03-22T09:56:43;98681.13;;;11.32;72.71
77118;BME280;66072;50.238;19.228;2024-03-22T09:59:14;98675.67;;;11.42;72.74
77118;BME280;66072;50.238;19.228;2024-03-22T10:01:42;98674.95;;;11.61;71.93
77118;BME280;66072;50.238;19.228;2024-03-22T10:04:10;98675.64;;;11.75;71.19
77118;BME280;66072;50.238;19.228;2024-03-22T10:06:37;98673.77;;;11.79;70.36
77118;BME280;66072;50.238;19.228;2024-03-22T10:09:05;98675.83;;;11.75;70.33
77118;BME280;66072;50.238;19.228;2024-03-22T10:11:32;98669.22;;;11.74;70.21
77118;BME280;66072;50.238;19.228;2024-03-22T10:14:00;98667.05;;;11.76;70.30
77118;BME280;66072;50.238;19.228;2024-03-22T10:16:33;98667.96;;;11.90;69.95
77118;BME280;66072;50.238;19.228;2024-03-22T10:19:00;98658.88;;;12.11;69.43
77118;BME280;66072;50.238;19.228;2024-03-22T10:21:28;98661.24;;;12.45;68.68
77118;BME280;66072;50.238;19.228;2024-03-22T10:23:56;98661.61;;;12.65;67.39
77118;BME280;66072;50.238;19.228;2024-03-22T10:26:24;98657.48;;;12.68;66.90
77118;BME280;66072;50.238;19.228;2024-03-22T10:28:51;98655.69;;;12.76;67.08
77118;BME280;66072;50.238;19.228;2024-03-22T10:31:19;98650.64;;;12.88;67.14
77118;BME280;66072;50.238;19.228;2024-03-22T10:33:47;98648.51;;;13.11;66.58
77118;BME280;66072;50.238;19.228;2024-03-22T10:36:16;98643.45;;;13.35;65.66
77118;BME280;66072;50.238;19.228;2024-03-22T10:38:44;98636.92;;;13.57;64.65
77118;BME280;66072;50.238;19.228;2024-03-22T10:41:12;98634.95;;;13.77;63.12
77118;BME280;66072;50.238;19.228;2024-03-22T10:43:40;98631.38;;;13.88;61.98
77118;BME280;66072;50.238;19.228;2024-03-22T10:46:09;98627.18;;;13.95;61.47
77118;BME280;66072;50.238;19.228;2024-03-22T10:48:37;98625.86;;;14.07;60.82
77118;BME280;66072;50.238;19.228;2024-03-22T10:51:05;98620.03;;;14.12;60.42
77118;BME280;66072;50.238;19.228;2024-03-22T10:53:34;98618.17;;;14.12;60.17
77118;BME280;66072;50.238;19.228;2024-03-22T10:56:04;98617.66;;;14.09;60.23
77118;BME280;66072;50.238;19.228;2024-03-22T10:58:31;98615.26;;;14.00;60.31
77118;BME280;66072;50.238;19.228;2024-03-22T11:00:59;98613.13;;;14.01;60.89
77118;BME280;66072;50.238;19.228;2024-03-22T11:03:27;98607.90;;;14.05;60.98
77118;BME280;66072;50.238;19.228;2024-03-22T11:05:55;98606.69;;;14.02;59.86
77118;BME280;66072;50.238;19.228;2024-03-22T11:08:24;98603.75;;;13.87;59.92
77118;BME280;66072;50.238;19.228;2024-03-22T11:10:53;98599.34;;;13.80;60.30
77118;BME280;66072;50.238;19.228;2024-03-22T11:13:21;98593.77;;;13.85;60.26
77118;BME280;66072;50.238;19.228;2024-03-22T11:15:49;98589.85;;;14.02;60.43
77118;BME280;66072;50.238;19.228;2024-03-22T11:18:17;98587.81;;;14.07;60.11
77118;BME280;66072;50.238;19.228;2024-03-22T11:20:45;98584.55;;;14.07;59.85
77118;BME280;66072;50.238;19.228;2024-03-22T11:23:13;98579.28;;;14.09;59.31
77118;BME280;66072;50.238;19.228;2024-03-22T11:25:40;98582.71;;;14.03;59.82
77118;BME280;66072;50.238;19.228;2024-03-22T12:23:18;98534.91;;;12.69;63.58
77118;BME280;66072;50.238;19.228;2024-03-22T12:25:46;98529.99;;;12.74;63.91
77118;BME280;66072;50.238;19.228;2024-03-22T12:28:14;98527.02;;;12.78;64.01
77118;BME280;66072;50.238;19.228;2024-03-22T12:30:42;98528.10;;;12.84;63.81
77118;BME280;66072;50.238;19.228;2024-03-22T12:33:10;98525.71;;;12.99;63.49
77118;BME280;66072;50.238;19.228;2024-03-22T12:35:39;98525.06;;;13.17;63.49
77118;BME280;66072;50.238;19.228;2024-03-22T12:38:07;98521.15;;;13.26;62.82
77118;BME280;66072;50.238;19.228;2024-03-22T12:40:35;98512.52;;;13.24;62.55
77118;BME280;66072;50.238;19.228;2024-03-22T12:43:03;98507.83;;;13.22;62.86
77118;BME280;66072;50.238;19.228;2024-03-22T12:45:30;98505.10;;;13.27;62.36
77118;BME280;66072;50.238;19.228;2024-03-22T12:47:58;98508.89;;;13.45;61.59
77118;BME280;66072;50.238;19.228;2024-03-22T12:50:27;98506.66;;;13.69;61.03
77118;BME280;66072;50.238;19.228;2024-03-22T12:52:54;98503.60;;;13.89;59.79
77118;BME280;66072;50.238;19.228;2024-03-22T12:55:21;98504.12;;;14.03;59.46
77118;BME280;66072;50.238;19.228;2024-03-22T12:57:49;98496.77;;;14.14;59.16
77118;BME280;66072;50.238;19.228;2024-03-22T13:00:16;98492.63;;;14.28;58.42
77118;BME280;66072;50.238;19.228;2024-03-22T13:02:45;98488.71;;;14.47;57.81
77118;BME280;66072;50.238;19.228;2024-03-22T13:05:13;98481.55;;;14.63;57.07
77118;BME280;66072;50.238;19.228;2024-03-22T13:07:41;98478.69;;;14.67;56.23
77118;BME280;66072;50.238;19.228;2024-03-22T13:10:09;98476.23;;;14.68;56.54
77118;BME280;66072;50.238;19.228;2024-03-22T13:12:36;98471.30;;;14.62;56.98
77118;BME280;66072;50.238;19.228;2024-03-22T13:15:04;98472.52;;;14.50;57.01
77118;BME280;66072;50.238;19.228;2024-03-22T13:17:44;98473.21;;;14.27;56.54
77118;BME280;66072;50.238;19.228;2024-03-22T13:20:11;98466.33;;;14.08;57.33
77118;BME280;66072;50.238;19.228;2024-03-22T13:22:39;98465.00;;;13.96;57.75
77118;BME280;66072;50.238;19.228;2024-03-22T13:25:06;98461.93;;;13.92;57.73
77118;BME280;66072;50.238;19.228;2024-03-22T13:27:34;98460.17;;;13.93;58.23
77118;BME280;66072;50.238;19.228;2024-03-22T13:30:02;98459.47;;;13.96;58.32
77118;BME280;66072;50.238;19.228;2024-03-22T13:32:30;98458.20;;;14.03;58.00
77118;BME280;66072;50.238;19.228;2024-03-22T13:34:57;98455.73;;;14.07;57.98
77118;BME280;66072;50.238;19.228;2024-03-22T13:37:25;98453.44;;;14.08;57.80
77118;BME280;66072;50.238;19.228;2024-03-22T13:39:52;98455.36;;;14.04;58.09
77118;BME280;66072;50.238;19.228;2024-03-22T13:42:20;98451.85;;;14.06;58.51
77118;BME280;66072;50.238;19.228;2024-03-22T13:44:47;98451.23;;;14.07;58.21
77118;BME280;66072;50.238;19.228;2024-03-22T13:47:14;98450.17;;;13.99;58.13
77118;BME280;66072;50.238;19.228;2024-03-22T13:49:42;98446.61;;;13.90;58.72
77118;BME280;66072;50.238;19.228;2024-03-22T13:52:10;98440.85;;;13.77;59.00
77118;BME280;66072;50.238;19.228;2024-03-22T13:54:37;98434.52;;;13.65;59.32